Time;durP1;ratioP1;P1;durP2;ratioP2;P2;SDS_P1;SDS_P2;PMS_P1;PMS_P2;Temp;Humidity;BMP_temperature;BMP_pressure;BME280_temperature;BME280_humidity;BME280_pressure;Samples;Min_cycle;Max_cycle;Signal;HPM_P1;HPM_P2
2022/10/26 00:02:20;;;;;;;4.23;3.37;;;;;;;14.09;nan;99403.91;4873499;29;20227;-76
2022/10/26 00:04:46;;;;;;;3.03;1.80;;;;;;;14.11;nan;99407.25;4876283;29;20984;-79
2022/10/26 00:07:11;;;;;;;3.63;1.83;;;;;;;14.13;nan;99409.78;4873080;29;20196;-76
2022/10/26 00:09:36;;;;;;;3.10;2.27;;;;;;;14.15;nan;99414.00;4865493;29;20709;-77
2022/10/26 00:12:03;;;;;;;6.47;2.30;;;;;;;14.20;nan;99404.84;4868652;29;20218;-77
2022/10/26 00:14:29;;;;;;;4.25;2.05;;;;;;;14.22;nan;99406.38;4877359;29;20200;-77
2022/10/26 00:16:54;;;;;;;4.20;2.45;;;;;;;14.26;nan;99405.19;4870954;29;20202;-76
2022/10/26 00:19:20;;;;;;;2.00;1.80;;;;;;;14.28;nan;99391.84;4865755;29;20509;-78
2022/10/26 00:21:45;;;;;;;3.23;2.30;;;;;;;14.29;nan;99399.66;4874318;29;20549;-77
2022/10/26 00:24:11;;;;;;;5.13;1.53;;;;;;;14.29;nan;99399.66;4874006;29;20271;-76
2022/10/26 00:26:37;;;;;;;4.20;2.17;;;;;;;14.32;nan;99401.19;4867679;29;20207;-79
2022/10/26 00:29:03;;;;;;;2.90;2.10;;;;;;;14.34;nan;99399.28;4869074;29;20219;-76
2022/10/26 00:31:28;;;;;;;3.00;1.97;;;;;;;14.36;nan;99390.22;4867329;29;20255;-78
2022/10/26 00:33:54;;;;;;;2.37;1.93;;;;;;;14.36;nan;99403.44;4870198;29;20673;-78
2022/10/26 00:36:21;;;;;;;2.37;1.97;;;;;;;14.32;nan;99409.97;4880188;29;20204;-77
2022/10/26 00:38:51;;;;;;;4.70;2.10;;;;;;;14.29;nan;99406.75;4883230;29;20770;-76
2022/10/26 00:41:19;;;;;;;5.57;2.00;;;;;;;14.26;nan;99409.63;4877145;29;20694;-76
2022/10/26 00:43:45;;;;;;;2.20;1.80;;;;;;;14.24;nan;99403.63;4884637;29;20769;-77
2022/10/26 00:46:15;;;;;;;2.83;2.10;;;;;;;14.25;nan;99400.84;4874769;29;20251;-78
2022/10/26 00:48:45;;;;;;;3.13;2.13;;;;;;;14.22;nan;99376.50;4873012;29;20534;-78
2022/10/26 00:51:43;;;;;;;3.72;2.15;;;;;;;14.22;nan;99387.06;4869926;29;20291;-78
2022/10/26 00:54:17;;;;;;;3.25;1.80;;;;;;;14.14;nan;99400.91;4872319;29;20207;-78
2022/10/26 00:56:44;;;;;;;3.90;2.22;;;;;;;14.04;nan;99408.75;4875239;29;20315;-79
2022/10/26 00:59:13;;;;;;;2.95;1.60;;;;;;;14.00;nan;99404.66;4876597;29;20203;-77
2022/10/26 01:01:42;;;;;;;3.03;2.72;;;;;;;13.99;nan;99424.13;4873209;29;20219;-78
2022/10/26 01:04:07;;;;;;;4.50;2.50;;;;;;;13.94;nan;99424.47;4871405;29;20906;-77
2022/10/26 01:06:35;;;;;;;2.40;2.00;;;;;;;13.88;nan;99432.91;4869345;29;20238;-77
2022/10/26 01:09:00;;;;;;;5.43;2.75;;;;;;;13.86;nan;99434.81;4872048;29;20265;-76
2022/10/26 01:11:26;;;;;;;2.90;2.23;;;;;;;13.88;nan;99445.25;4876112;29;20709;-76
2022/10/26 01:13:54;;;;;;;2.87;2.20;;;;;;;13.87;nan;99431.22;4866683;29;20195;-76
2022/10/26 01:16:38;;;;;;;4.00;2.50;;;;;;;13.86;nan;99439.28;4878204;29;20461;-78
2022/10/26 01:19:07;;;;;;;3.30;2.78;;;;;;;13.86;nan;99439.28;4870923;29;20199;-78
2022/10/26 01:21:48;;;;;;;5.50;2.70;;;;;;;13.84;nan;99441.19;4866910;29;20428;-77
2022/10/26 01:24:44;;;;;;;4.72;2.25;;;;;;;13.86;nan;99455.94;4870805;29;20202;-79
2022/10/26 01:27:22;;;;;;;5.50;2.17;;;;;;;13.90;nan;99452.09;4891685;29;20679;-78
2022/10/26 01:30:16;;;;;;;3.58;2.55;;;;;;;13.91;nan;99461.69;4877174;29;20291;-77
2022/10/26 01:33:19;;;;;;;6.53;2.35;;;;;;;13.95;nan;99471.03;4881747;29;20338;-78
2022/10/26 01:35:44;;;;;;;3.97;2.60;;;;;;;13.97;nan;99459.53;4873411;29;20194;-76
2022/10/26 01:38:37;;;;;;;4.10;2.67;;;;;;;13.97;nan;99478.03;4876912;29;20385;-80
2022/10/26 01:41:10;;;;;;;2.75;2.50;;;;;;;13.95;nan;99480.78;4869121;29;20411;-79
2022/10/26 01:43:42;;;;;;;3.30;2.10;;;;;;;13.96;nan;99508.88;4873049;29;20203;-79
2022/10/26 01:46:09;;;;;;;4.97;2.22;;;;;;;13.98;nan;99508.75;4866209;29;20555;-78
2022/10/26 01:48:36;;;;;;;3.78;2.70;;;;;;;14.00;nan;99509.47;4870680;29;20649;-77
2022/10/26 01:51:05;;;;;;;4.10;2.38;;;;;;;14.01;nan;99511.97;4867914;29;20223;-76
2022/10/26 01:53:30;;;;;;;3.65;2.83;;;;;;;14.03;nan;99509.22;4865959;29;20207;-76
2022/10/26 01:55:57;;;;;;;5.13;2.53;;;;;;;14.03;nan;99540.91;4874903;29;20196;-79
2022/10/26 01:58:38;;;;;;;2.70;2.30;;;;;;;14.01;nan;99527.81;4879468;29;20296;-76
2022/10/26 02:01:12;;;;;;;5.78;2.65;;;;;;;13.99;nan;99550.00;4870846;29;20215;-76
2022/10/26 02:03:43;;;;;;;3.00;2.70;;;;;;;13.97;nan;99552.78;4876828;29;20641;-76
2022/10/26 02:06:23;;;;;;;5.00;2.45;;;;;;;13.96;nan;99543.22;4877080;29;20226;-78
2022/10/26 02:08:55;;;;;;;4.00;2.20;;;;;;;13.95;nan;99550.25;4876021;29;20280;-78
2022/10/26 02:11:38;;;;;;;2.47;2.03;;;;;;;13.94;nan;99548.59;4865989;29;20224;-76
2022/10/26 02:14:33;;;;;;;2.05;1.85;;;;;;;13.93;nan;99536.38;4868607;29;20195;-77
2022/10/26 02:17:09;;;;;;;3.63;1.70;;;;;;;13.92;nan;99539.94;4869255;29;20229;-77
2022/10/26 02:19:47;;;;;;;3.05;1.75;;;;;;;13.95;nan;99538.88;4870818;29;20668;-76
2022/10/26 02:22:46;;;;;;;4.00;2.70;;;;;;;13.99;nan;99520.97;4869897;29;20266;-79
2022/10/26 02:25:22;;;;;;;3.58;2.03;;;;;;;14.01;nan;99533.09;4865206;29;20232;-78
2022/10/26 02:27:54;;;;;;;2.63;1.80;;;;;;;14.04;nan;99545.22;4871991;29;20605;-77
2022/10/26 02:30:19;;;;;;;2.20;2.00;;;;;;;14.05;nan;99554.84;4868751;29;20204;-77
2022/10/26 02:32:49;;;;;;;2.43;1.90;;;;;;;14.06;nan;99532.75;4877746;29;20600;-77
2022/10/26 02:35:18;;;;;;;2.25;2.05;;;;;;;14.06;nan;99530.94;4875366;29;20195;-79
2022/10/26 02:37:46;;;;;;;2.53;2.00;;;;;;;14.03;nan;99515.31;4882540;29;20195;-78
2022/10/26 02:40:15;;;;;;;1.73;1.35;;;;;;;14.02;nan;99492.53;4874838;29;20251;-77
2022/10/26 02:42:44;;;;;;;3.05;1.75;;;;;;;14.02;nan;99457.38;4872194;29;20210;-77
2022/10/26 02:45:14;;;;;;;3.88;2.10;;;;;;;14.01;nan;99447.75;4876418;29;20214;-77
2022/10/26 02:47:39;;;;;;;6.38;1.98;;;;;;;13.97;nan;99430.50;4868537;29;20720;-77
2022/10/26 02:50:05;;;;;;;2.23;1.40;;;;;;;13.95;nan;99443.81;4871070;29;20208;-79
2022/10/26 02:52:39;;;;;;;3.40;2.00;;;;;;;14.01;nan;99453.03;4879894;29;20592;-77
2022/10/26 02:55:17;;;;;;;1.85;1.70;;;;;;;14.04;nan;99485.34;4869456;29;20444;-77
2022/10/26 02:57:46;;;;;;;2.15;1.88;;;;;;;14.07;nan;99494.78;4876268;29;20374;-79
2022/10/26 03:00:17;;;;;;;6.25;2.20;;;;;;;14.09;nan;99493.69;4877503;29;20271;-78
2022/10/26 03:02:49;;;;;;;3.75;2.15;;;;;;;14.08;nan;99505.25;4877814;29;20242;-77
2022/10/26 03:05:31;;;;;;;3.10;1.80;;;;;;;14.08;nan;99501.75;4875205;29;20358;-78
2022/10/26 03:07:59;;;;;;;1.90;1.77;;;;;;;14.07;nan;99513.28;4868520;29;20192;-78
2022/10/26 03:10:24;;;;;;;3.50;2.80;;;;;;;14.03;nan;99501.28;4879267;29;20258;-77
2022/10/26 03:12:50;;;;;;;1.77;1.63;;;;;;;14.02;nan;99494.34;4867869;29;20663;-76
2022/10/26 03:15:16;;;;;;;3.65;2.72;;;;;;;14.04;nan;99505.59;4875688;29;20231;-76
2022/10/26 03:17:42;;;;;;;2.47;1.80;;;;;;;14.06;nan;99501.03;4864919;29;20226;-77
2022/10/26 03:20:08;;;;;;;4.90;2.00;;;;;;;14.07;nan;99495.66;4880901;29;20208;-76
2022/10/26 03:22:33;;;;;;;3.93;1.93;;;;;;;14.08;nan;99484.13;4868895;29;20662;-77
2022/10/26 03:24:58;;;;;;;5.63;2.67;;;;;;;14.06;nan;99469.34;4868659;29;20480;-77
2022/10/26 03:27:25;;;;;;;4.50;2.30;;;;;;;14.04;nan;99463.34;4871337;29;20180;-77
2022/10/26 03:29:51;;;;;;;2.55;2.13;;;;;;;14.05;nan;99471.16;4871785;29;20785;-76
2022/10/26 03:32:16;;;;;;;3.40;2.07;;;;;;;14.05;nan;99478.25;4872487;29;20239;-77
2022/10/26 03:34:42;;;;;;;4.17;2.40;;;;;;;14.05;nan;99467.69;4879387;29;20413;-79
2022/10/26 03:37:07;;;;;;;3.10;2.13;;;;;;;14.02;nan;99463.47;4865654;29;20195;-78
2022/10/26 03:39:32;;;;;;;3.17;1.60;;;;;;;14.02;nan;99455.56;4863483;29;20191;-79
2022/10/26 03:41:58;;;;;;;3.63;2.03;;;;;;;13.97;nan;99441.06;4872281;29;20743;-78
2022/10/26 03:44:23;;;;;;;2.50;1.83;;;;;;;13.89;nan;99436.38;4875961;29;20275;-77
2022/10/26 03:46:49;;;;;;;4.40;2.00;;;;;;;13.88;nan;99454.03;4880265;29;20219;-78
2022/10/26 03:49:14;;;;;;;2.53;2.33;;;;;;;13.90;nan;99453.88;4864725;29;20195;-79
2022/10/26 03:51:39;;;;;;;2.17;1.97;;;;;;;13.94;nan;99452.69;4867271;29;20794;-79
2022/10/26 03:54:05;;;;;;;2.70;1.90;;;;;;;13.99;nan;99460.22;4866782;29;20502;-79
2022/10/26 03:56:31;;;;;;;2.10;1.77;;;;;;;14.03;nan;99457.22;4866569;29;21105;-76
2022/10/26 03:58:56;;;;;;;2.30;1.47;;;;;;;14.07;nan;99452.53;4875747;29;20191;-76
2022/10/26 04:01:22;;;;;;;1.87;1.60;;;;;;;14.10;nan;99455.78;4869504;29;20580;-77
2022/10/26 04:03:48;;;;;;;2.30;2.10;;;;;;;14.13;nan;99458.16;4865488;29;20629;-77
2022/10/26 04:06:13;;;;;;;1.93;1.73;;;;;;;14.13;nan;99457.34;4870673;29;20504;-78
2022/10/26 04:08:39;;;;;;;5.00;2.10;;;;;;;14.13;nan;99465.25;4873719;29;20667;-79
2022/10/26 04:11:04;;;;;;;2.60;2.10;;;;;;;14.12;nan;99471.50;4870816;29;20220;-76
2022/10/26 04:13:29;;;;;;;4.70;2.27;;;;;;;14.12;nan;99467.06;4880104;29;20191;-76
2022/10/26 04:15:55;;;;;;;3.80;2.03;;;;;;;14.13;nan;99459.97;4878353;29;20648;-77
2022/10/26 04:18:20;;;;;;;3.47;2.03;;;;;;;14.13;nan;99463.47;4876228;29;20187;-78
2022/10/26 04:20:46;;;;;;;8.80;2.80;;;;;;;14.12;nan;99447.72;4877806;29;20180;-76
2022/10/26 04:23:14;;;;;;;3.00;2.20;;;;;;;14.10;nan;99447.84;4875975;29;20501;-78
2022/10/26 04:25:40;;;;;;;5.88;2.65;;;;;;;14.09;nan;99450.59;4883041;29;20294;-78
2022/10/26 04:28:07;;;;;;;2.17;1.95;;;;;;;14.06;nan;99459.63;4877159;29;20502;-76
2022/10/26 04:30:33;;;;;;;6.72;3.47;;;;;;;14.05;nan;99465.03;4873273;29;20203;-77
2022/10/26 04:32:59;;;;;;;2.83;2.08;;;;;;;14.03;nan;99459.03;4870909;29;20407;-80
2022/10/26 04:35:25;;;;;;;4.05;2.80;;;;;;;13.98;nan;99469.97;4871805;29;20184;-76
2022/10/26 04:37:51;;;;;;;4.80;2.10;;;;;;;13.95;nan;99476.31;4875362;29;20247;-76
2022/10/26 04:40:16;;;;;;;4.47;2.13;;;;;;;13.94;nan;99484.38;4866132;29;21067;-79
2022/10/26 04:42:46;;;;;;;2.70;1.93;;;;;;;13.94;nan;99481.75;4870455;29;20322;-77
2022/10/26 04:45:13;;;;;;;4.80;2.25;;;;;;;13.93;nan;99490.59;4872979;29;20229;-77
2022/10/26 04:47:40;;;;;;;4.07;2.55;;;;;;;13.92;nan;99489.78;4866544;29;20196;-77
2022/10/26 04:50:06;;;;;;;3.80;2.38;;;;;;;13.93;nan;99502.03;4876354;29;20186;-80
2022/10/26 04:52:32;;;;;;;2.88;2.60;;;;;;;13.95;nan;99486.06;4868634;29;20211;-77
2022/10/26 04:54:58;;;;;;;5.05;2.42;;;;;;;13.95;nan;99486.88;4872782;29;20263;-76
2022/10/26 04:57:23;;;;;;;4.80;3.00;;;;;;;13.96;nan;99487.75;4872668;29;20199;-79
2022/10/26 04:59:49;;;;;;;4.13;2.90;;;;;;;13.97;nan;99489.41;4884406;29;20179;-76
2022/10/26 05:02:14;;;;;;;4.40;3.50;;;;;;;13.99;nan;99490.16;4865451;29;20798;-76
2022/10/26 05:04:40;;;;;;;4.40;2.23;;;;;;;13.98;nan;99482.34;4880127;29;20291;-79
2022/10/26 05:07:05;;;;;;;2.93;2.30;;;;;;;13.97;nan;99485.94;4872138;29;20216;-76
2022/10/26 05:09:30;;;;;;;2.60;2.40;;;;;;;13.95;nan;99492.16;4876993;29;20198;-77
2022/10/26 05:11:56;;;;;;;4.77;2.80;;;;;;;13.95;nan;99488.69;4865312;29;20474;-79
2022/10/26 05:14:21;;;;;;;4.20;3.00;;;;;;;13.94;nan;99500.22;4872353;29;20649;-78
2022/10/26 05:16:47;;;;;;;5.97;2.93;;;;;;;13.94;nan;99500.22;4870497;29;20291;-76
2022/10/26 05:19:12;;;;;;;6.90;2.70;;;;;;;13.92;nan;99513.53;4882402;29;20195;-78
2022/10/26 05:21:37;;;;;;;3.37;2.60;;;;;;;13.91;nan;99503.94;4875785;29;20275;-76
2022/10/26 05:24:03;;;;;;;4.00;2.70;;;;;;;13.90;nan;99511.97;4866924;29;20879;-79
2022/10/26 05:26:28;;;;;;;6.40;3.20;;;;;;;13.91;nan;99511.03;4870577;29;20227;-79
2022/10/26 05:28:54;;;;;;;3.90;2.77;;;;;;;13.90;nan;99510.16;4869637;29;20199;-76
2022/10/26 05:31:20;;;;;;;4.77;3.10;;;;;;;13.91;nan;99511.03;4868606;29;20238;-80
2022/10/26 05:33:49;;;;;;;3.47;2.30;;;;;;;13.92;nan;99523.25;4867975;29;20254;-76
2022/10/26 05:36:16;;;;;;;5.10;2.55;;;;;;;13.92;nan;99515.34;4873957;29;20187;-76
2022/10/26 05:38:42;;;;;;;3.33;2.00;;;;;;;13.92;nan;99517.97;4860690;29;20199;-79
2022/10/26 05:41:07;;;;;;;3.10;2.30;;;;;;;13.90;nan;99515.44;4866899;29;20209;-77
2022/10/26 05:43:33;;;;;;;3.47;1.97;;;;;;;13.90;nan;99518.09;4871152;29;20227;-79
2022/10/26 05:45:58;;;;;;;3.70;2.13;;;;;;;13.90;nan;99518.09;4866046;29;20250;-76
2022/10/26 05:48:23;;;;;;;2.53;2.33;;;;;;;13.91;nan;99524.25;4869206;29;20192;-80
2022/10/26 05:50:49;;;;;;;3.40;2.57;;;;;;;13.92;nan;99534.66;4863352;29;20743;-80
2022/10/26 05:53:14;;;;;;;4.80;3.30;;;;;;;13.91;nan;99526.88;4865769;29;20271;-77
2022/10/26 05:55:40;;;;;;;5.40;3.13;;;;;;;13.90;nan;99527.81;4864171;29;20204;-78
2022/10/26 05:58:13;;;;;;;6.03;2.67;;;;;;;13.90;nan;99541.03;4869536;29;20763;-79
2022/10/26 06:01:17;;;;;;;3.35;2.40;;;;;;;13.87;nan;99534.19;4863426;29;20605;-76
2022/10/26 06:03:55;;;;;;;5.82;3.55;;;;;;;13.85;nan;99543.19;4856938;29;20203;-76
2022/10/26 06:06:21;;;;;;;5.32;3.15;;;;;;;13.82;nan;99553.97;4868194;29;21326;-78
2022/10/26 06:08:47;;;;;;;9.85;3.40;;;;;;;13.81;nan;99569.00;4870198;29;20271;-79
2022/10/26 06:11:12;;;;;;;5.47;3.27;;;;;;;13.81;nan;99569.00;4868645;29;20212;-80
2022/10/26 06:13:38;;;;;;;4.50;2.97;;;;;;;13.82;nan;99570.66;4871850;29;20830;-79
2022/10/26 06:16:28;;;;;;;3.60;3.20;;;;;;;13.81;nan;99563.72;4871290;29;20187;-76
2022/10/26 06:19:22;;;;;;;3.88;2.80;;;;;;;13.81;nan;99578.72;4866216;29;20465;-77
2022/10/26 06:22:11;;;;;;;5.20;2.60;;;;;;;13.78;nan;99569.22;4873016;29;20573;-80
2022/10/26 06:25:11;;;;;;;5.25;2.97;;;;;;;13.77;nan;99572.84;4869462;29;20210;-79
2022/10/26 06:28:14;;;;;;;5.80;3.30;;;;;;;13.76;nan;99580.88;4867531;29;20191;-80
2022/10/26 06:30:40;;;;;;;5.45;2.90;;;;;;;13.79;nan;99593.81;4867709;29;20874;-80
2022/10/26 06:33:09;;;;;;;5.53;3.72;;;;;;;13.81;nan;99590.13;4873338;29;20525;-78
2022/10/26 06:35:40;;;;;;;6.68;2.90;;;;;;;13.84;nan;99589.88;4868953;29;20196;-79
2022/10/26 06:38:14;;;;;;;5.10;3.42;;;;;;;13.87;nan;99594.06;4873696;29;20218;-78
2022/10/26 06:40:42;;;;;;;4.53;3.22;;;;;;;13.89;nan;99589.53;4865427;29;20192;-78
2022/10/26 06:43:22;;;;;;;6.47;3.45;;;;;;;13.92;nan;99592.75;4869921;29;20187;-79
2022/10/26 06:45:59;;;;;;;3.10;2.45;;;;;;;13.97;nan;99595.06;4875424;29;20934;-80
2022/10/26 06:48:28;;;;;;;5.47;2.33;;;;;;;14.03;nan;99607.75;4860933;29;20677;-79
2022/10/26 06:50:54;;;;;;;3.28;2.97;;;;;;;14.09;nan;99609.09;4867132;29;20219;-77
2022/10/26 06:53:32;;;;;;;5.13;2.60;;;;;;;14.13;nan;99615.81;4867212;29;20192;-77
2022/10/26 06:55:59;;;;;;;3.83;3.25;;;;;;;14.17;nan;99612.81;4864072;29;20581;-75
2022/10/26 06:58:29;;;;;;;3.97;3.00;;;;;;;14.22;nan;99615.09;4860779;29;20227;-78
2022/10/26 07:00:56;;;;;;;4.75;2.33;;;;;;;14.24;nan;99607.06;4863258;29;20556;-77
2022/10/26 07:03:21;;;;;;;3.92;3.08;;;;;;;14.34;nan;99614.13;4870154;29;20192;-75
2022/10/26 07:05:47;;;;;;;5.47;3.70;;;;;;;14.41;nan;99626.84;4863466;29;20251;-75
2022/10/26 07:08:12;;;;;;;3.87;2.57;;;;;;;14.47;nan;99623.72;4873449;29;20195;-76
2022/10/26 07:10:38;;;;;;;7.63;3.17;;;;;;;14.56;nan;99630.97;4870632;29;20402;-70
2022/10/26 07:13:08;;;;;;;4.63;2.93;;;;;;;14.67;nan;99633.59;4861297;29;20187;-77
2022/10/26 07:15:35;;;;;;;3.88;2.63;;;;;;;14.77;nan;99634.53;4862885;29;20451;-79
2022/10/26 07:18:05;;;;;;;3.72;3.13;;;;;;;14.89;nan;99637.13;4872678;29;20194;-77
2022/10/26 07:20:35;;;;;;;8.45;3.17;;;;;;;14.98;nan;99639.03;4868510;29;20273;-77
2022/10/26 07:23:01;;;;;;;13.02;3.45;;;;;;;15.08;nan;99639.97;4871551;29;20182;-78
2022/10/26 07:25:27;;;;;;;4.90;3.10;;;;;;;15.19;nan;99647.00;4864337;29;20214;-79
2022/10/26 07:27:59;;;;;;;9.07;3.13;;;;;;;15.26;nan;99650.84;4865870;29;20198;-77
2022/10/26 07:30:26;;;;;;;7.70;3.95;;;;;;;15.32;nan;99657.44;4859783;29;21143;-77
2022/10/26 07:33:04;;;;;;;8.90;4.50;;;;;;;15.36;nan;99669.44;4868775;29;20373;-78
2022/10/26 07:35:29;;;;;;;4.10;3.38;;;;;;;15.35;nan;99673.06;4864912;29;20196;-76
2022/10/26 07:37:57;;;;;;;2.90;2.70;;;;;;;15.32;nan;99674.16;4874369;29;20475;-78
2022/10/26 07:40:22;;;;;;;4.80;2.85;;;;;;;15.31;nan;99677.78;4862498;29;20188;-77
2022/10/26 07:42:48;;;;;;;5.40;3.00;;;;;;;15.31;nan;99682.19;4865722;29;20703;-76
2022/10/26 07:45:13;;;;;;;8.30;4.40;;;;;;;15.33;nan;99686.41;4865399;29;20389;-78
2022/10/26 07:47:38;;;;;;;5.30;3.77;;;;;;;15.35;nan;99695.06;4857000;29;20310;-77
2022/10/26 07:50:04;;;;;;;4.73;3.27;;;;;;;15.37;nan;99694.97;4859509;29;20184;-78
2022/10/26 07:52:30;;;;;;;3.70;3.40;;;;;;;15.40;nan;99697.34;4864756;29;20212;-78
2022/10/26 07:54:55;;;;;;;3.20;2.90;;;;;;;15.44;nan;99699.59;5064683;23;20304;-79
2022/10/26 07:57:21;;;;;;;9.97;4.20;;;;;;;15.48;nan;99713.44;4914773;29;20736;-80
2022/10/26 07:59:46;;;;;;;5.27;3.60;;;;;;;15.54;nan;99712.09;4910722;29;20215;-79
2022/10/26 08:02:11;;;;;;;5.30;3.13;;;;;;;15.60;nan;99722.16;4900551;29;20539;-76
2022/10/26 08:04:37;;;;;;;4.93;3.20;;;;;;;15.67;nan;99718.06;4900986;29;20265;-76
2022/10/26 08:07:02;;;;;;;5.80;3.70;;;;;;;15.73;nan;99716.72;4898527;29;20219;-79
2022/10/26 08:09:28;;;;;;;5.47;3.57;;;;;;;15.80;nan;99720.56;4896088;29;20217;-78
2022/10/26 08:11:53;;;;;;;6.30;3.80;;;;;;;15.87;nan;99716.41;4895260;29;20217;-78
2022/10/26 08:14:18;;;;;;;9.57;4.67;;;;;;;15.93;nan;99721.19;4903839;29;20295;-79
2022/10/26 08:16:44;;;;;;;16.27;5.07;;;;;;;15.99;nan;99728.63;4894581;29;20201;-80
2022/10/26 08:19:10;;;;;;;8.20;4.70;;;;;;;16.06;nan;99721.00;4896310;29;20293;-78
2022/10/26 08:21:35;;;;;;;7.37;3.50;;;;;;;16.13;nan;99723.00;4895245;29;20942;-77
2022/10/26 08:24:00;;;;;;;4.47;3.30;;;;;;;16.20;nan;99720.66;4898050;29;20286;-80
2022/10/26 08:26:26;;;;;;;19.57;5.50;;;;;;;16.25;nan;99723.75;4897360;29;20921;-77
2022/10/26 08:28:51;;;;;;;6.00;4.10;;;;;;;16.31;nan;99722.38;4896438;29;21153;-77
2022/10/26 08:31:17;;;;;;;7.97;3.67;;;;;;;16.36;nan;99728.13;4894616;29;20230;-76
2022/10/26 08:33:42;;;;;;;6.87;3.70;;;;;;;16.41;nan;99735.69;4898221;29;20865;-76
2022/10/26 08:36:08;;;;;;;6.23;3.60;;;;;;;16.45;nan;99735.31;4896863;29;20725;-78
2022/10/26 08:38:33;;;;;;;5.43;3.00;;;;;;;16.49;nan;99723.47;4897014;29;20183;-80
2022/10/26 08:41:06;;;;;;;3.83;3.30;;;;;;;16.56;nan;99731.75;4896895;29;20207;-79
2022/10/26 08:43:41;;;;;;;19.85;5.90;;;;;;;16.63;nan;99732.03;4897695;29;20194;-79
2022/10/26 08:46:13;;;;;;;26.58;7.03;;;;;;;16.68;nan;99735.13;4901231;29;20302;-78
2022/10/26 08:48:46;;;;;;;7.53;3.35;;;;;;;16.76;nan;99740.59;4896499;29;20198;-79
2022/10/26 08:51:17;;;;;;;8.60;3.40;;;;;;;16.81;nan;99741.91;4904323;29;20207;-79
2022/10/26 08:53:51;;;;;;;9.15;3.58;;;;;;;16.87;nan;99748.50;4900324;29;20213;-76
2022/10/26 08:56:21;;;;;;;4.95;3.00;;;;;;;16.92;nan;99740.97;4902398;29;20309;-79
2022/10/26 08:59:10;;;;;;;4.95;3.28;;;;;;;16.96;nan;99742.38;4914806;29;20207;-76
2022/10/26 09:01:36;;;;;;;6.93;2.90;;;;;;;16.99;nan;99741.28;4894399;29;20194;-79
2022/10/26 09:04:03;;;;;;;6.73;3.40;;;;;;;17.01;nan;99745.47;4899301;29;20190;-78
2022/10/26 09:06:49;;;;;;;7.78;4.47;;;;;;;17.06;nan;99747.72;4900518;29;20216;-77
2022/10/26 09:09:20;;;;;;;3.80;3.50;;;;;;;17.10;nan;99750.94;4899725;29;20195;-77
2022/10/26 09:12:30;;;;;;;9.85;4.53;;;;;;;17.13;nan;99759.47;4896353;29;20220;-76
2022/10/26 09:15:21;;;;;;;8.23;3.60;;;;;;;17.20;nan;99750.00;4898616;29;20203;-77
2022/10/26 09:17:54;;;;;;;6.38;3.15;;;;;;;17.28;nan;99761.72;4900780;29;20239;-78
2022/10/26 09:20:33;;;;;;;17.05;4.25;;;;;;;17.37;nan;99761.75;4905235;29;20202;-78
2022/10/26 09:23:20;;;;;;;9.20;4.20;;;;;;;17.48;nan;99761.63;4898093;29;20189;-81
2022/10/26 09:25:56;;;;;;;8.00;4.28;;;;;;;17.62;nan;99759.53;4902688;29;20323;-79
2022/10/26 09:28:22;;;;;;;4.93;3.13;;;;;;;17.75;nan;99757.44;4899793;29;20594;-79
2022/10/26 09:30:48;;;;;;;4.57;4.17;;;;;;;17.90;nan;99765.84;4899813;29;20188;-79
2022/10/26 09:33:23;;;;;;;6.00;3.60;;;;;;;18.02;nan;99762.09;4899358;29;20472;-78
2022/10/26 09:35:57;;;;;;;7.00;4.22;;;;;;;18.16;nan;99763.47;4898293;29;20208;-80
2022/10/26 09:38:37;;;;;;;12.10;4.03;;;;;;;18.34;nan;99761.75;4895334;29;20543;-79
2022/10/26 09:41:14;;;;;;;8.00;3.87;;;;;;;18.61;nan;99761.97;4897819;29;21161;-80
2022/10/26 09:43:50;;;;;;;67.50;41.63;;;;;;;18.94;nan;99768.56;4898115;29;20772;-79
2022/10/26 09:46:21;;;;;;;43.13;23.50;;;;;;;19.34;nan;99764.72;4898320;29;20478;-79
2022/10/26 09:48:52;;;;;;;25.53;17.30;;;;;;;19.75;nan;99773.97;4898584;29;20442;-78
2022/10/26 09:51:18;;;;;;;16.03;9.00;;;;;;;20.04;nan;99767.56;4897942;29;21631;-76
2022/10/26 09:53:44;;;;;;;10.60;6.30;;;;;;;20.25;nan;99769.88;4898633;29;21010;-77
2022/10/26 09:56:11;;;;;;;11.03;5.80;;;;;;;20.44;nan;99779.50;4897361;29;20331;-78
2022/10/26 09:58:45;;;;;;;8.23;4.30;;;;;;;20.64;nan;99780.16;4899201;29;20441;-78
2022/10/26 10:01:32;;;;;;;7.97;3.80;;;;;;;20.83;nan;99790.59;4901949;29;20932;-78
2022/10/26 10:04:19;;;;;;;8.93;4.03;;;;;;;21.07;nan;99789.06;4901047;29;20508;-79
2022/10/26 10:06:59;;;;;;;8.43;4.13;;;;;;;21.38;nan;99784.00;4903523;29;20558;-78
2022/10/26 10:09:25;;;;;;;6.03;3.60;;;;;;;21.56;nan;99783.88;4908189;29;20466;-78
2022/10/26 10:11:56;;;;;;;8.07;3.53;;;;;;;21.65;nan;99788.22;4908817;29;20817;-78
2022/10/26 10:14:52;;;;;;;7.03;2.90;;;;;;;21.68;nan;99790.56;4914797;29;20446;-80
2022/10/26 10:17:21;;;;;;;4.33;2.83;;;;;;;21.66;nan;99795.28;4906673;29;20432;-78
2022/10/26 10:19:47;;;;;;;7.97;4.03;;;;;;;21.68;nan;99798.59;4913054;29;20431;-78
2022/10/26 10:22:18;;;;;;;5.40;3.40;;;;;;;21.75;nan;99791.59;4906908;29;20434;-79
2022/10/26 10:24:56;;;;;;;4.40;2.50;;;;;;;21.81;nan;99795.44;4909692;29;20278;-78
2022/10/26 10:27:23;;;;;;;6.67;2.97;;;;;;;21.94;nan;99792.28;4909465;29;20494;-78
2022/10/26 10:29:54;;;;;;;8.20;3.43;;;;;;;22.09;nan;99788.78;4903133;29;20458;-78
2022/10/26 10:32:22;;;;;;;8.40;3.67;;;;;;;22.21;nan;99789.28;4904759;29;20460;-79
2022/10/26 10:34:49;;;;;;;6.70;3.50;;;;;;;22.29;nan;99794.66;4913681;29;21070;-78
2022/10/26 10:37:22;;;;;;;7.90;3.17;;;;;;;22.40;nan;99793.47;4906527;29;20429;-79
2022/10/26 10:39:48;;;;;;;13.87;2.60;;;;;;;22.53;nan;99796.44;4900710;29;20438;-78
2022/10/26 10:42:22;;;;;;;5.77;2.43;;;;;;;22.63;nan;99798.09;4905443;29;20536;-79
2022/10/26 10:44:51;;;;;;;7.00;3.07;;;;;;;22.72;nan;99805.94;4908510;29;20476;-78
2022/10/26 10:47:29;;;;;;;10.10;4.37;;;;;;;22.77;nan;99800.09;4900849;29;20468;-79
2022/10/26 10:50:27;;;;;;;5.10;2.80;;;;;;;22.74;nan;99808.47;4897296;29;20424;-78
2022/10/26 10:52:53;;;;;;;9.17;3.17;;;;;;;22.73;nan;99802.25;4870166;29;20543;-78
2022/10/26 10:55:20;;;;;;;7.73;3.10;;;;;;;22.78;nan;99812.47;4906143;29;20452;-76
2022/10/26 10:58:05;;;;;;;9.00;3.00;;;;;;;22.86;nan;99816.97;4901056;29;20314;-76
2022/10/26 11:00:35;;;;;;;6.67;3.37;;;;;;;22.91;nan;99820.78;4905654;29;20453;-78
2022/10/26 11:03:15;;;;;;;7.43;3.13;;;;;;;22.98;nan;99818.31;4902161;29;20423;-78
2022/10/26 11:06:03;;;;;;;7.03;3.83;;;;;;;23.02;nan;99814.25;4904743;29;20468;-80
2022/10/26 11:08:49;;;;;;;10.43;3.80;;;;;;;23.03;nan;99813.25;4901822;29;20459;-79
2022/10/26 11:11:36;;;;;;;14.23;8.33;;;;;;;22.95;nan;99813.25;4900807;29;20451;-78
2022/10/26 11:14:10;;;;;;;14.00;4.60;;;;;;;22.83;nan;99815.47;4902412;29;20471;-78
2022/10/26 11:16:41;;;;;;;8.37;3.63;;;;;;;22.84;nan;99817.13;4896753;29;20442;-77
2022/10/26 11:19:15;;;;;;;8.90;3.63;;;;;;;22.88;nan;99810.44;4902824;29;20925;-80
2022/10/26 11:21:43;;;;;;;11.40;5.80;;;;;;;22.96;nan;99810.44;4900261;29;20470;-77
2022/10/26 11:24:21;;;;;;;6.40;4.00;;;;;;;23.07;nan;99817.25;4902952;29;20507;-77
2022/10/26 11:27:14;;;;;;;11.43;3.50;;;;;;;23.15;nan;99816.41;4903983;29;20859;-77
2022/10/26 11:29:52;;;;;;;20.03;13.60;;;;;;;23.19;nan;99812.34;4904761;29;20428;-77
2022/10/26 11:32:20;;;;;;;26.60;8.77;;;;;;;23.26;nan;99812.50;4901003;29;20562;-77
2022/10/26 11:35:11;;;;;;;14.30;3.70;;;;;;;23.28;nan;99813.16;4907211;29;20639;-76
2022/10/26 11:37:56;;;;;;;10.60;4.10;;;;;;;23.29;nan;99812.97;4905749;29;20511;-77
2022/10/26 11:40:34;;;;;;;8.50;4.20;;;;;;;23.32;nan;99811.78;4907328;29;21048;-78
2022/10/26 11:42:59;;;;;;;10.03;3.67;;;;;;;23.34;nan;99812.47;4900089;29;20424;-77
2022/10/26 11:45:30;;;;;;;9.20;3.20;;;;;;;23.34;nan;99812.47;4905670;29;20474;-78
2022/10/26 11:48:28;;;;;;;8.53;3.00;;;;;;;23.33;nan;99819.66;4902553;29;20340;-77
2022/10/26 11:50:59;;;;;;;26.33;5.67;;;;;;;23.32;nan;99819.84;4902572;29;20952;-77
2022/10/26 11:53:30;;;;;;;5.47;3.17;;;;;;;23.29;nan;99815.66;4907836;29;20448;-78
2022/10/26 11:55:58;;;;;;;12.40;3.67;;;;;;;23.29;nan;99817.50;4904889;29;20539;-77
2022/10/26 11:58:26;;;;;;;5.40;3.40;;;;;;;23.31;nan;99805.59;4902885;29;20419;-77
2022/10/26 12:01:00;;;;;;;5.27;2.70;;;;;;;23.34;nan;99812.47;4909336;29;20467;-82
2022/10/26 12:03:35;;;;;;;30.77;28.37;;;;;;;23.31;nan;99812.81;4917125;29;20470;-82
2022/10/26 12:06:01;;;;;;;7.20;3.90;;;;;;;23.25;nan;99811.66;4918975;29;21068;-82
2022/10/26 12:08:32;;;;;;;7.23;4.13;;;;;;;23.26;nan;99818.69;4901590;29;20808;-80